This is the latest recevied weather packets stored in our database for station/object W2SBL-1. If no packets are shown the sender has not sent any weather packets the latest 10 day(s).
| Time | Temp. | Humidity | Pressure | Rain* | Wind** | Luminosity | Snow |
|---|---|---|---|---|---|---|---|
| 1777826162 | 16.11° C | 49% | 1010.2 hPa | - | - | - | - |
| 1777825262 | 16.67° C | 48% | 1010.2 hPa | - | - | - | - |
| 1777824362 | 16.67° C | 48% | 1010.2 hPa | - | - | - | - |
| 1777823461 | 16.67° C | 48% | 1010.4 hPa | - | - | - | - |
| 1777822561 | 17.22° C | 47% | 1010.1 hPa | - | - | - | - |
| 1777821661 | 18.33° C | 44% | 1010.2 hPa | - | - | - | - |
| 1777820761 | 18.33° C | 43% | 1009.9 hPa | - | - | - | - |
| 1777819861 | 18.89° C | 42% | 1009.9 hPa | - | - | - | - |
| 1777818961 | 16.67° C | 44% | 1010 hPa | - | - | - | - |
| 1777818061 | 15° C | 47% | 1010.1 hPa | - | - | - | - |
| 1777817161 | 14.44° C | 47% | 1009.9 hPa | - | - | - | - |
| 1777816261 | 14.44° C | 47% | 1010.1 hPa | - | - | - | - |
| 1777815361 | 13.89° C | 47% | 1010 hPa | - | - | - | - |
| 1777814461 | 13.89° C | 47% | 1017.6 hPa | - | - | - | - |
| 1777813561 | 13.33° C | 47% | 1010 hPa | - | - | - | - |
| 1777812661 | 13.33° C | 47% | 1009.9 hPa | - | - | - | - |
| 1777811761 | 12.22° C | 48% | 1010 hPa | - | - | - | - |
| 1777810860 | 11.67° C | 49% | 1010.1 hPa | - | - | - | - |
| 1777809960 | 11.11° C | 50% | 1010.1 hPa | - | - | - | - |
| 1777809060 | 10.56° C | 50% | 1010 hPa | - | - | - | - |
| 1777808160 | 10.56° C | 50% | 1009.9 hPa | - | - | - | - |
| 1777807260 | 10° C | 50% | 1009.8 hPa | - | - | - | - |
| 1777806360 | 10° C | 51% | 1009.8 hPa | - | - | - | - |
| 1777805460 | 10° C | 51% | 1009.6 hPa | - | - | - | - |
| 1777804560 | 9.44° C | 51% | 1009.5 hPa | - | - | - | - |
* Rain since midnight (hover to see other rain measurements)
** Current wind speed in m/s (hover to see current wind gust speed)